createdAt,value
2017-07-29T00:01:35.550Z,100143.28
2017-07-29T00:04:02.954Z,100133.33
2017-07-29T00:06:30.374Z,100132.91
2017-07-29T00:08:57.787Z,100132.47
2017-07-29T00:11:25.234Z,100144.48
2017-07-29T00:13:52.814Z,100136.13
2017-07-29T00:16:20.246Z,100139.38
2017-07-29T00:18:47.679Z,100144.38
2017-07-29T00:21:15.114Z,100142.13
2017-07-29T00:23:42.564Z,100138.11
2017-07-29T00:26:09.985Z,100125.95
2017-07-29T00:28:37.422Z,100121.09
2017-07-29T00:31:04.874Z,100116.51
2017-07-29T00:33:32.263Z,100123.33
2017-07-29T00:35:59.778Z,100121.16
2017-07-29T00:38:27.190Z,100113.41
2017-07-29T00:40:54.615Z,100114.85
2017-07-29T00:43:22.217Z,100107.55
2017-07-29T00:45:49.642Z,100116.33
2017-07-29T00:48:17.099Z,100117.95
2017-07-29T00:50:44.586Z,100112.42
2017-07-29T00:53:11.990Z,100115.28
2017-07-29T00:55:39.650Z,100105.30
2017-07-29T00:58:07.060Z,100099.23
2017-07-29T01:00:34.486Z,100093.42
2017-07-29T01:03:01.904Z,100099.20
2017-07-29T01:05:29.315Z,100097.20
2017-07-29T01:07:56.718Z,100094.39
2017-07-29T01:10:24.128Z,100094.09
2017-07-29T01:12:51.718Z,100088.03
2017-07-29T01:15:19.160Z,100083.59
2017-07-29T01:17:46.562Z,100082.68
2017-07-29T01:20:14.311Z,100082.38
2017-07-29T01:22:41.744Z,100082.23
2017-07-29T01:25:09.138Z,100087.30
2017-07-29T01:27:36.711Z,100080.80
2017-07-29T01:30:04.155Z,100075.75
2017-07-29T01:32:31.570Z,100086.91
2017-07-29T01:34:59.027Z,100076.94
2017-07-29T01:37:26.454Z,100075.32
2017-07-29T01:39:53.879Z,100077.77
2017-07-29T01:42:21.482Z,100079.82
2017-07-29T01:44:48.911Z,100071.88
2017-07-29T01:47:16.358Z,100072.14
2017-07-29T01:49:43.829Z,100077.06
2017-07-29T01:52:11.262Z,100080.99
2017-07-29T01:54:38.678Z,100077.35
2017-07-29T01:57:06.265Z,100076.30
2017-07-29T01:59:33.675Z,100068.88
2017-07-29T02:02:01.074Z,100069.28
2017-07-29T02:04:28.516Z,100072.66
2017-07-29T02:06:55.926Z,100069.17
2017-07-29T02:09:23.418Z,100061.11
2017-07-29T02:11:50.952Z,100065.68
2017-07-29T02:14:18.342Z,100056.66
2017-07-29T02:16:45.769Z,100062.33
2017-07-29T02:19:13.206Z,100055.97
2017-07-29T02:21:40.634Z,100063.94
2017-07-29T02:24:08.065Z,100065.86
2017-07-29T02:26:36.408Z,100060.98
2017-07-29T02:29:03.853Z,100064.63
2017-07-29T02:31:31.259Z,100059.23
2017-07-29T02:33:58.675Z,100058.84
2017-07-29T02:36:26.108Z,100063.42
2017-07-29T02:38:53.502Z,100066.01
2017-07-29T02:41:21.055Z,100068.98
2017-07-29T02:43:48.492Z,100065.86
2017-07-29T02:46:15.898Z,100058.62
2017-07-29T02:48:43.324Z,100059.41
2017-07-29T02:51:10.735Z,100056.45
2017-07-29T02:53:38.143Z,100055.91
2017-07-29T02:56:05.683Z,100055.92
2017-07-29T02:58:33.134Z,100051.02
2017-07-29T03:01:00.558Z,100054.96
2017-07-29T03:03:28.224Z,100051.17
2017-07-29T03:05:55.603Z,100047.95
2017-07-29T03:08:23.018Z,100049.05
2017-07-29T03:10:50.427Z,100048.91
2017-07-29T03:13:17.871Z,100049.63
2017-07-29T03:15:45.280Z,100044.34
2017-07-29T03:18:12.748Z,100039.62
2017-07-29T03:20:40.199Z,100038.81
2017-07-29T03:23:07.590Z,100036.52
2017-07-29T03:25:35.015Z,100038.58
2017-07-29T03:28:02.455Z,100039.38
2017-07-29T03:30:29.876Z,100041.95
2017-07-29T03:32:57.771Z,100051.27
2017-07-29T03:35:25.225Z,100046.80
2017-07-29T03:37:52.664Z,100057.73
2017-07-29T03:40:20.263Z,100061.11
2017-07-29T03:42:47.675Z,100049.91
2017-07-29T03:45:15.361Z,100049.25
2017-07-29T03:47:42.913Z,100048.95
2017-07-29T03:50:10.359Z,100052.33
2017-07-29T03:52:37.761Z,100055.59
2017-07-29T03:55:06.034Z,100046.44
2017-07-29T03:57:33.475Z,100044.93
2017-07-29T04:00:01.253Z,100039.55
2017-07-29T04:02:28.686Z,100044.13
2017-07-29T04:04:56.155Z,100037.91
2017-07-29T04:07:23.571Z,100043.99
2017-07-29T04:09:51.146Z,100054.92
2017-07-29T04:12:18.521Z,100053.45
2017-07-29T04:14:45.958Z,100058.02
2017-07-29T04:17:13.402Z,100060.18
2017-07-29T04:19:40.807Z,100057.91
2017-07-29T04:22:08.275Z,100063.29
2017-07-29T04:24:35.894Z,100057.91
2017-07-29T04:27:03.297Z,100055.34
2017-07-29T04:29:30.764Z,100049.27
2017-07-29T04:31:58.377Z,100043.61
2017-07-29T04:34:25.780Z,100052.00
2017-07-29T04:36:53.403Z,100061.33
2017-07-29T04:39:20.790Z,100063.08
2017-07-29T04:41:48.816Z,100064.97
2017-07-29T04:44:16.415Z,100063.34
2017-07-29T04:46:44.034Z,100061.05
2017-07-29T04:49:11.434Z,100059.32
2017-07-29T04:51:38.825Z,100069.34
2017-07-29T04:54:06.286Z,100070.56
2017-07-29T04:56:33.693Z,100071.38
2017-07-29T04:59:01.079Z,100078.00
2017-07-29T05:01:28.530Z,100072.33
2017-07-29T05:03:55.936Z,100078.42
2017-07-29T05:06:23.342Z,100075.30
2017-07-29T05:08:50.796Z,100065.86
2017-07-29T05:11:18.768Z,100068.43
2017-07-29T05:13:46.199Z,100066.38
2017-07-29T05:16:13.799Z,100069.50
2017-07-29T05:18:41.207Z,100061.81
2017-07-29T05:21:08.646Z,100075.19
2017-07-29T05:23:36.083Z,100085.03
2017-07-29T05:26:03.867Z,100079.50
2017-07-29T05:28:31.267Z,100076.54
2017-07-29T05:30:58.902Z,100069.77
2017-07-29T05:33:26.339Z,100074.78
2017-07-29T05:35:53.738Z,100069.77
2017-07-29T05:38:21.326Z,100059.34
2017-07-29T05:40:48.780Z,100067.30
2017-07-29T05:43:16.171Z,100062.44
2017-07-29T05:45:43.626Z,100067.86
2017-07-29T05:48:11.072Z,100067.19
2017-07-29T05:50:38.475Z,100071.91
2017-07-29T05:53:05.996Z,100079.59
2017-07-29T05:55:33.451Z,100079.98
2017-07-29T05:58:00.882Z,100086.05
2017-07-29T06:00:28.397Z,100089.56
2017-07-29T06:02:55.790Z,100089.95
2017-07-29T06:05:23.558Z,100089.80
2017-07-29T06:07:50.979Z,100085.86
2017-07-29T06:10:32.110Z,100093.12
2017-07-29T06:12:59.639Z,100097.84
2017-07-29T06:15:27.074Z,100092.02
2017-07-29T06:17:55.414Z,100087.53
2017-07-29T06:20:24.077Z,100090.36
2017-07-29T06:22:51.463Z,100084.27
2017-07-29T06:25:18.890Z,100080.98
2017-07-29T06:27:46.290Z,100083.12
2017-07-29T06:30:13.738Z,100092.98
2017-07-29T06:32:41.222Z,100098.52
2017-07-29T06:35:08.662Z,100091.06
2017-07-29T06:37:36.095Z,100095.92
2017-07-29T06:40:03.506Z,100096.22
2017-07-29T06:42:30.986Z,100092.91
2017-07-29T06:44:58.403Z,100102.23
2017-07-29T06:47:25.794Z,100100.83
2017-07-29T06:49:53.338Z,100106.83
2017-07-29T06:52:20.743Z,100098.48
2017-07-29T06:54:48.122Z,100103.08
2017-07-29T06:57:15.909Z,100102.44
2017-07-29T06:59:43.306Z,100112.98
2017-07-29T07:02:10.698Z,100103.08
2017-07-29T07:04:38.474Z,100115.27
2017-07-29T07:07:05.850Z,100114.64
2017-07-29T07:09:33.238Z,100107.14
2017-07-29T07:12:00.782Z,100103.44
2017-07-29T07:14:28.170Z,100109.33
2017-07-29T07:16:55.619Z,100120.67
2017-07-29T07:19:29.874Z,100121.87
2017-07-29T07:21:57.259Z,100112.39
2017-07-29T07:24:24.642Z,100124.54
2017-07-29T07:26:52.343Z,100127.62
2017-07-29T07:29:19.734Z,100122.68
2017-07-29T07:31:47.115Z,100118.41
2017-07-29T07:34:14.663Z,100124.47
2017-07-29T07:36:42.054Z,100123.31
2017-07-29T07:39:09.450Z,100123.60
2017-07-29T07:41:36.993Z,100127.95
2017-07-29T07:44:04.379Z,100117.63
2017-07-29T07:46:31.770Z,100121.62
2017-07-29T07:48:59.314Z,100122.20
2017-07-29T07:51:26.707Z,100133.84
2017-07-29T07:53:54.117Z,100121.46
2017-07-29T07:56:21.548Z,100133.01
2017-07-29T07:58:48.946Z,100131.13
2017-07-29T08:01:16.337Z,100137.98
2017-07-29T08:03:44.211Z,100130.41
2017-07-29T08:06:11.611Z,100140.36
2017-07-29T08:08:38.992Z,100140.76
2017-07-29T08:11:06.438Z,100146.58
2017-07-29T08:13:33.820Z,100151.00
2017-07-29T08:16:01.211Z,100150.34
2017-07-29T08:18:28.651Z,100155.09
2017-07-29T08:20:56.042Z,100152.02
2017-07-29T08:23:23.435Z,100157.60
2017-07-29T08:25:50.862Z,100149.37
2017-07-29T08:28:18.250Z,100148.22
2017-07-29T08:30:45.646Z,100153.53
2017-07-29T08:33:13.054Z,100153.91
2017-07-29T08:35:47.459Z,100152.27
2017-07-29T08:38:14.967Z,100149.81
2017-07-29T08:40:42.350Z,100147.52
2017-07-29T08:43:09.738Z,100157.21
2017-07-29T08:45:37.170Z,100155.52
2017-07-29T08:48:04.565Z,100156.42
2017-07-29T08:50:31.963Z,100156.17
2017-07-29T08:52:59.397Z,100156.23
2017-07-29T08:55:26.787Z,100155.03
2017-07-29T08:57:54.188Z,100155.30
2017-07-29T09:00:21.616Z,100152.20
2017-07-29T09:02:55.439Z,100154.38
2017-07-29T09:05:22.888Z,100156.72
2017-07-29T09:07:50.282Z,100158.42
2017-07-29T09:10:17.723Z,100156.27
2017-07-29T09:12:45.134Z,100152.12
2017-07-29T09:15:12.532Z,100149.64
2017-07-29T09:17:39.937Z,100154.41
2017-07-29T09:20:07.392Z,100152.70
2017-07-29T09:22:34.803Z,100156.14
2017-07-29T09:25:02.192Z,100158.17
2017-07-29T09:27:29.859Z,100147.58
2017-07-29T09:29:57.260Z,100150.84
2017-07-29T09:32:24.647Z,100163.53
2017-07-29T09:34:52.065Z,100156.91
2017-07-29T09:37:19.467Z,100156.27
2017-07-29T09:39:47.934Z,100155.81
2017-07-29T09:42:15.346Z,100151.86
2017-07-29T09:44:42.739Z,100150.31
2017-07-29T09:47:10.125Z,100148.75
2017-07-29T09:49:37.658Z,100143.30
2017-07-29T09:52:05.041Z,100153.67
2017-07-29T09:54:32.437Z,100151.88
2017-07-29T09:56:59.976Z,100147.48
2017-07-29T09:59:27.358Z,100149.95
2017-07-29T10:01:54.752Z,100150.33
2017-07-29T10:04:22.178Z,100151.63
2017-07-29T10:06:49.562Z,100151.17
2017-07-29T10:09:16.945Z,100156.25
2017-07-29T10:11:44.382Z,100153.65
2017-07-29T10:14:11.766Z,100146.86
2017-07-29T10:16:39.159Z,100148.75
2017-07-29T10:19:06.750Z,100144.45
2017-07-29T10:21:34.142Z,100151.33
2017-07-29T10:24:01.521Z,100153.76
2017-07-29T10:26:29.226Z,100138.52
2017-07-29T10:28:56.614Z,100143.73
2017-07-29T10:31:24.006Z,100144.45
2017-07-29T10:33:51.446Z,100141.55
2017-07-29T10:36:18.837Z,100140.88
2017-07-29T10:38:46.218Z,100146.98
2017-07-29T10:41:14.077Z,100152.86
2017-07-29T10:43:41.462Z,100146.82
2017-07-29T10:46:08.868Z,100149.45
2017-07-29T10:48:36.659Z,100149.88
2017-07-29T10:51:04.038Z,100151.09
2017-07-29T10:53:31.426Z,100151.05
2017-07-29T10:55:59.186Z,100137.37
2017-07-29T10:58:26.579Z,100144.69
2017-07-29T11:00:53.968Z,100143.68
2017-07-29T11:03:21.467Z,100138.95
2017-07-29T11:05:48.851Z,100146.31
2017-07-29T11:08:16.234Z,100140.27
2017-07-29T11:10:43.780Z,100144.61
2017-07-29T11:13:11.166Z,100154.33
2017-07-29T11:15:38.557Z,100142.93
2017-07-29T11:18:05.957Z,100145.15
2017-07-29T11:20:33.351Z,100149.37
2017-07-29T11:23:00.735Z,100147.33
2017-07-29T11:25:28.283Z,100156.28
2017-07-29T11:27:55.673Z,100157.45
2017-07-29T11:30:23.057Z,100143.14
2017-07-29T11:32:50.602Z,100151.42
2017-07-29T11:35:19.031Z,100148.62
2017-07-29T11:37:46.414Z,100146.89
2017-07-29T11:40:14.286Z,100151.16
2017-07-29T11:42:41.698Z,100154.18
2017-07-29T11:45:09.089Z,100154.95
2017-07-29T11:47:36.823Z,100159.98
2017-07-29T11:50:04.215Z,100150.17
2017-07-29T11:52:31.603Z,100156.49
2017-07-29T11:54:59.034Z,100149.44
2017-07-29T11:57:26.441Z,100144.95
2017-07-29T11:59:53.830Z,100151.88
2017-07-29T12:02:21.252Z,100149.23
2017-07-29T12:04:48.641Z,100151.95
2017-07-29T12:07:16.882Z,100144.58
2017-07-29T12:09:44.443Z,100142.70
2017-07-29T12:12:11.835Z,100147.02
2017-07-29T12:14:39.220Z,100147.45
2017-07-29T12:17:06.970Z,100133.77
2017-07-29T12:19:34.366Z,100130.86
2017-07-29T12:22:01.768Z,100127.25
2017-07-29T12:24:29.162Z,100126.37
2017-07-29T12:26:56.559Z,100116.16
2017-07-29T12:29:23.951Z,100112.43
2017-07-29T12:31:51.381Z,100122.91
2017-07-29T12:34:18.780Z,100122.33
2017-07-29T12:36:46.174Z,100121.52
2017-07-29T12:39:13.620Z,100121.50
2017-07-29T12:41:41.019Z,100119.02
2017-07-29T12:44:08.402Z,100114.60
2017-07-29T12:46:36.045Z,100118.64
2017-07-29T12:49:03.443Z,100118.95
2017-07-29T12:51:30.834Z,100126.95
2017-07-29T12:53:58.678Z,100121.52
2017-07-29T12:56:26.066Z,100122.23
2017-07-29T12:58:53.455Z,100119.96
2017-07-29T13:01:21.002Z,100113.17
2017-07-29T13:03:48.390Z,100122.89
2017-07-29T13:06:15.786Z,100120.66
2017-07-29T13:08:43.338Z,100120.45
2017-07-29T13:11:10.730Z,100117.79
2017-07-29T13:13:38.118Z,100114.91
2017-07-29T13:16:05.942Z,100111.66
2017-07-29T13:18:33.325Z,100116.53
2017-07-29T13:21:00.715Z,100120.77
2017-07-29T13:23:28.315Z,100123.16
2017-07-29T13:25:55.710Z,100116.85
2017-07-29T13:28:23.098Z,100117.63
2017-07-29T13:30:50.518Z,100111.72
2017-07-29T13:33:17.907Z,100111.42
2017-07-29T13:35:45.301Z,100115.71
2017-07-29T13:38:13.062Z,100110.55
2017-07-29T13:40:40.450Z,100108.23
2017-07-29T13:43:07.848Z,100100.73
2017-07-29T13:45:35.635Z,100089.66
2017-07-29T13:48:03.030Z,100088.61
2017-07-29T13:50:31.455Z,100085.96
2017-07-29T13:52:58.862Z,100081.66
2017-07-29T13:55:26.243Z,100078.82
2017-07-29T13:57:53.635Z,100079.47
2017-07-29T14:00:21.203Z,100080.62
2017-07-29T14:02:48.638Z,100084.16
2017-07-29T14:05:16.046Z,100079.73
2017-07-29T14:07:43.594Z,100083.50
2017-07-29T14:10:10.978Z,100078.44
2017-07-29T14:12:38.370Z,100068.14
2017-07-29T14:15:05.788Z,100066.38
2017-07-29T14:17:33.168Z,100058.14
2017-07-29T14:20:00.572Z,100053.23
2017-07-29T14:22:27.994Z,100054.86
2017-07-29T14:24:57.011Z,100059.28
2017-07-29T14:27:25.130Z,100057.61
2017-07-29T14:29:52.687Z,100057.91
2017-07-29T14:32:20.110Z,100058.08
2017-07-29T14:34:47.498Z,100054.04
2017-07-29T14:37:14.926Z,100055.81
2017-07-29T14:39:42.322Z,100049.30
2017-07-29T14:42:09.743Z,100050.25
2017-07-29T14:44:37.481Z,100056.38
2017-07-29T14:47:04.872Z,100046.17
2017-07-29T14:49:32.255Z,100048.16
2017-07-29T14:52:00.064Z,100051.19
2017-07-29T14:54:27.458Z,100048.41
2017-07-29T14:56:54.859Z,100051.22
2017-07-29T14:59:22.278Z,100050.41
2017-07-29T15:01:49.674Z,100047.13
2017-07-29T15:04:17.070Z,100035.73
2017-07-29T15:06:44.612Z,100036.50
2017-07-29T15:09:11.998Z,100034.97
2017-07-29T15:11:39.391Z,100033.50
2017-07-29T15:14:06.808Z,100036.09
2017-07-29T15:16:34.286Z,100025.75
2017-07-29T15:19:01.677Z,100032.91
2017-07-29T15:21:29.178Z,100032.69
2017-07-29T15:23:56.582Z,100028.42
2017-07-29T15:26:23.982Z,100020.29
2017-07-29T15:28:51.527Z,100021.11
2017-07-29T15:31:18.918Z,100020.67
2017-07-29T15:33:47.314Z,100016.28
2017-07-29T15:36:14.867Z,100018.44
2017-07-29T15:38:42.250Z,100008.67
2017-07-29T15:41:09.642Z,100004.56
2017-07-29T15:43:37.045Z,100002.97
2017-07-29T15:46:04.427Z,99996.52
2017-07-29T15:48:31.817Z,99995.03
2017-07-29T15:50:59.255Z,99996.03
2017-07-29T15:53:26.651Z,99990.36
2017-07-29T15:55:54.054Z,99985.09
2017-07-29T15:58:21.827Z,99988.11
2017-07-29T16:00:49.215Z,99986.11
2017-07-29T16:03:16.608Z,99978.23
2017-07-29T16:05:44.147Z,99977.11
2017-07-29T16:08:11.546Z,99970.16
2017-07-29T16:10:38.935Z,99969.84
2017-07-29T16:13:06.439Z,99969.70
2017-07-29T16:15:33.826Z,99967.72
2017-07-29T16:18:01.223Z,99963.61
2017-07-29T16:20:28.934Z,99963.26
2017-07-29T16:22:56.318Z,99960.43
2017-07-29T16:25:24.165Z,99962.44
2017-07-29T16:27:51.682Z,99958.66
2017-07-29T16:30:19.067Z,99962.48
2017-07-29T16:32:46.928Z,99955.07
2017-07-29T16:35:14.335Z,99961.18
2017-07-29T16:37:42.187Z,99952.91
2017-07-29T16:40:10.310Z,99951.17
2017-07-29T16:42:37.713Z,99949.09
2017-07-29T16:45:05.100Z,99946.08
2017-07-29T16:47:32.494Z,99946.88
2017-07-29T16:50:06.214Z,99942.88
2017-07-29T16:52:34.554Z,99935.77
2017-07-29T16:55:01.963Z,99929.19
2017-07-29T16:57:37.475Z,99927.05
2017-07-29T17:00:04.951Z,99932.55
2017-07-29T17:02:34.931Z,99927.96
2017-07-29T17:05:02.631Z,99923.70
2017-07-29T17:07:30.030Z,99921.00
2017-07-29T17:09:58.115Z,99919.50
2017-07-29T17:12:25.631Z,99914.17
2017-07-29T17:14:53.023Z,99917.98
2017-07-29T17:17:20.411Z,99903.42
2017-07-29T17:19:48.207Z,99908.11
2017-07-29T17:22:18.795Z,99902.83
2017-07-29T17:24:46.193Z,99893.91
2017-07-29T17:27:13.623Z,99893.09
2017-07-29T17:29:41.003Z,99886.57
2017-07-29T17:32:08.395Z,99883.12
2017-07-29T17:34:37.069Z,99886.45
2017-07-29T17:37:04.443Z,99868.98
2017-07-29T17:39:31.834Z,99870.11
2017-07-29T17:41:59.338Z,99864.06
2017-07-29T17:44:26.731Z,99865.30
2017-07-29T17:46:54.124Z,99866.66
2017-07-29T17:49:21.638Z,99873.16
2017-07-29T17:51:49.065Z,99868.41
2017-07-29T17:54:19.825Z,99864.00
2017-07-29T17:56:47.230Z,99860.14
2017-07-29T17:59:14.615Z,99856.90
2017-07-29T18:01:42.011Z,99852.56
2017-07-29T18:04:09.427Z,99838.89
2017-07-29T18:06:36.826Z,99844.97
2017-07-29T18:09:04.210Z,99850.90
2017-07-29T18:11:31.758Z,99846.42
2017-07-29T18:13:59.157Z,99846.17
2017-07-29T18:16:26.550Z,99843.45
2017-07-29T18:18:53.962Z,99841.03
2017-07-29T18:21:21.355Z,99833.55
2017-07-29T18:23:48.748Z,99833.31
2017-07-29T18:26:16.405Z,99832.29
2017-07-29T18:28:43.798Z,99827.85
2017-07-29T18:31:13.227Z,99822.56
2017-07-29T18:33:40.733Z,99805.63
2017-07-29T18:36:08.143Z,99814.30
2017-07-29T18:38:35.535Z,99809.72
2017-07-29T18:41:03.082Z,99809.08
2017-07-29T18:43:30.470Z,99811.09
2017-07-29T18:45:57.872Z,99809.45
2017-07-29T18:48:25.416Z,99807.61
2017-07-29T18:50:52.814Z,99806.23
2017-07-29T18:53:20.211Z,99806.95
2017-07-29T18:55:47.754Z,99803.49
2017-07-29T18:58:15.146Z,99798.09
2017-07-29T19:00:42.538Z,99807.75
2017-07-29T19:03:10.107Z,99803.41
2017-07-29T19:05:37.510Z,99805.03
2017-07-29T19:08:04.900Z,99805.20
2017-07-29T19:10:32.658Z,99805.73
2017-07-29T19:13:00.053Z,99809.66
2017-07-29T19:15:27.444Z,99806.60
2017-07-29T19:17:54.945Z,99810.85
2017-07-29T19:20:22.327Z,99815.55
2017-07-29T19:22:49.722Z,99816.05
2017-07-29T19:25:17.213Z,99816.43
2017-07-29T19:27:44.602Z,99810.90
2017-07-29T19:30:11.994Z,99814.45
2017-07-29T19:32:39.599Z,99814.41
2017-07-29T19:35:06.996Z,99813.39
2017-07-29T19:37:34.381Z,99810.27
2017-07-29T19:40:01.930Z,99810.84
2017-07-29T19:42:29.325Z,99816.36
2017-07-29T19:44:56.715Z,99822.07
2017-07-29T19:47:24.146Z,99816.45
2017-07-29T19:49:51.546Z,99822.39
2017-07-29T19:52:18.963Z,99820.66
2017-07-29T19:54:46.458Z,99822.16
2017-07-29T19:57:13.857Z,99814.38
2017-07-29T19:59:41.254Z,99819.17
2017-07-29T20:02:08.887Z,99817.91
2017-07-29T20:04:36.278Z,99814.59
2017-07-29T20:07:03.666Z,99816.54
2017-07-29T20:09:31.076Z,99815.01
2017-07-29T20:11:58.474Z,99820.46
2017-07-29T20:14:25.862Z,99811.86
2017-07-29T20:16:53.408Z,99810.73
2017-07-29T20:19:20.807Z,99812.75
2017-07-29T20:21:48.194Z,99821.34
2017-07-29T20:24:16.011Z,99809.59
2017-07-29T20:26:43.398Z,99817.31
2017-07-29T20:29:10.790Z,99813.93
2017-07-29T20:31:38.358Z,99816.75
2017-07-29T20:34:05.770Z,99822.10
2017-07-29T20:36:33.163Z,99817.86
2017-07-29T20:39:00.566Z,99822.91
2017-07-29T20:41:27.975Z,99819.52
2017-07-29T20:43:55.378Z,99818.55
2017-07-29T20:46:22.886Z,99818.69
2017-07-29T20:48:50.278Z,99814.11
2017-07-29T20:51:17.670Z,99816.78
2017-07-29T20:53:45.075Z,99814.34
2017-07-29T20:56:12.479Z,99819.88
2017-07-29T20:58:39.871Z,99813.72
2017-07-29T21:01:07.385Z,99816.50
2017-07-29T21:03:34.786Z,99809.74
2017-07-29T21:06:02.177Z,99803.80
2017-07-29T21:08:29.580Z,99805.80
2017-07-29T21:10:56.966Z,99800.23
2017-07-29T21:13:24.358Z,99798.03
2017-07-29T21:15:52.092Z,99801.71
2017-07-29T21:18:19.478Z,99801.88
2017-07-29T21:20:46.874Z,99797.97
2017-07-29T21:23:14.286Z,99801.24
2017-07-29T21:25:41.683Z,99791.27
2017-07-29T21:28:09.095Z,99798.56
2017-07-29T21:30:36.499Z,99801.24
2017-07-29T21:33:03.895Z,99795.95
2017-07-29T21:35:31.287Z,99796.37
2017-07-29T21:37:59.115Z,99797.08
2017-07-29T21:40:26.506Z,99793.86
2017-07-29T21:42:53.898Z,99797.08
2017-07-29T21:45:21.303Z,99791.62
2017-07-29T21:47:48.712Z,99792.58
2017-07-29T21:50:16.106Z,99790.26
2017-07-29T21:52:43.564Z,99790.13
2017-07-29T21:55:10.950Z,99795.23
2017-07-29T21:57:38.342Z,99787.57
2017-07-29T22:00:05.891Z,99789.23
2017-07-29T22:02:33.283Z,99786.19
2017-07-29T22:05:00.670Z,99783.27
2017-07-29T22:07:28.071Z,99782.16
2017-07-29T22:09:55.472Z,99782.56
2017-07-29T22:12:22.862Z,99779.89
2017-07-29T22:14:50.270Z,99784.80
2017-07-29T22:17:17.663Z,99786.47
2017-07-29T22:19:45.064Z,99789.19
2017-07-29T22:22:12.929Z,99781.34
2017-07-29T22:24:40.327Z,99789.28
2017-07-29T22:27:07.715Z,99782.22
2017-07-29T22:29:35.258Z,99783.56
2017-07-29T22:32:02.662Z,99786.83
2017-07-29T22:34:30.054Z,99777.59
2017-07-29T22:36:57.482Z,99778.81
2017-07-29T22:39:24.867Z,99773.20
2017-07-29T22:41:52.262Z,99778.38
2017-07-29T22:44:19.809Z,99771.16
2017-07-29T22:46:47.227Z,99771.71
2017-07-29T22:49:14.598Z,99768.80
2017-07-29T22:51:42.147Z,99770.57
2017-07-29T22:54:09.540Z,99760.13
2017-07-29T22:56:36.926Z,99760.62
2017-07-29T22:59:04.590Z,99757.30
2017-07-29T23:01:31.986Z,99754.98
2017-07-29T23:03:59.376Z,99752.42
2017-07-29T23:06:26.922Z,99746.00
2017-07-29T23:08:54.324Z,99747.98
2017-07-29T23:11:21.722Z,99747.70
2017-07-29T23:13:49.268Z,99740.66
2017-07-29T23:16:16.662Z,99735.69
2017-07-29T23:18:44.055Z,99745.69
2017-07-29T23:21:11.706Z,99737.44
2017-07-29T23:23:39.097Z,99736.98
2017-07-29T23:26:06.490Z,99733.25
2017-07-29T23:28:34.084Z,99741.34
2017-07-29T23:31:01.473Z,99734.31
2017-07-29T23:33:28.867Z,99731.28
2017-07-29T23:35:56.281Z,99728.72
2017-07-29T23:38:23.680Z,99731.34
2017-07-29T23:40:51.074Z,99728.61
2017-07-29T23:43:18.643Z,99727.98
2017-07-29T23:45:46.038Z,99723.84
2017-07-29T23:48:13.431Z,99719.63
2017-07-29T23:50:40.846Z,99724.53
2017-07-29T23:53:08.234Z,99723.79
2017-07-29T23:55:35.630Z,99720.74
2017-07-29T23:58:03.170Z,99705.52
